createdAt,value
2018-07-15T00:00:53.693Z,100160.39
2018-07-15T00:03:21.279Z,100158.22
2018-07-15T00:05:49.995Z,100155.52
2018-07-15T00:08:17.619Z,100152.49
2018-07-15T00:10:46.973Z,100158.52
2018-07-15T00:13:15.163Z,100161.69
2018-07-15T00:15:43.395Z,100163.16
2018-07-15T00:18:10.975Z,100159.70
2018-07-15T00:20:38.868Z,100155.59
2018-07-15T00:23:06.469Z,100150.77
2018-07-15T00:25:34.066Z,100152.39
2018-07-15T00:28:02.279Z,100148.81
2018-07-15T00:30:30.764Z,100146.73
2018-07-15T00:32:58.961Z,100152.58
2018-07-15T00:35:27.281Z,100148.49
2018-07-15T00:37:56.026Z,100145.27
2018-07-15T00:40:23.697Z,100148.73
2018-07-15T00:42:51.615Z,100148.70
2018-07-15T00:45:20.779Z,100150.51
2018-07-15T00:47:48.402Z,100148.77
2018-07-15T00:50:16.242Z,100147.41
2018-07-15T00:52:44.776Z,100144.17
2018-07-15T00:55:12.411Z,100144.11
2018-07-15T00:57:40.012Z,100147.80
2018-07-15T01:00:08.147Z,100145.78
2018-07-15T01:02:35.951Z,100144.58
2018-07-15T01:05:03.570Z,100144.38
2018-07-15T01:07:31.708Z,100145.03
2018-07-15T01:09:59.395Z,100141.80
2018-07-15T01:12:27.031Z,100131.52
2018-07-15T01:14:54.924Z,100134.00
2018-07-15T01:17:22.521Z,100133.45
2018-07-15T01:19:50.105Z,100131.70
2018-07-15T01:22:17.726Z,100123.42
2018-07-15T01:24:45.582Z,100130.27
2018-07-15T01:27:13.212Z,100125.21
2018-07-15T01:29:40.825Z,100129.72
2018-07-15T01:32:08.702Z,100124.87
2018-07-15T01:34:36.275Z,100123.87
2018-07-15T01:37:03.935Z,100125.70
2018-07-15T01:39:32.125Z,100125.87
2018-07-15T01:41:59.766Z,100129.83
2018-07-15T01:44:27.372Z,100122.37
2018-07-15T01:46:54.935Z,100126.36
2018-07-15T01:49:22.799Z,100129.50
2018-07-15T01:51:50.404Z,100118.34
2018-07-15T01:54:18.023Z,100122.69
2018-07-15T01:56:45.615Z,100113.29
2018-07-15T01:59:13.466Z,100113.77
2018-07-15T02:01:41.063Z,100113.77
2018-07-15T02:04:09.286Z,100114.91
2018-07-15T02:06:37.170Z,100114.36
2018-07-15T02:09:04.856Z,100117.48
2018-07-15T02:11:32.418Z,100111.40
2018-07-15T02:14:00.032Z,100112.05
2018-07-15T02:16:27.918Z,100112.19
2018-07-15T02:18:56.804Z,100113.19
2018-07-15T02:21:24.395Z,100118.55
2018-07-15T02:23:54.003Z,100113.19
2018-07-15T02:26:21.846Z,100116.35
2018-07-15T02:28:49.414Z,100113.19
2018-07-15T02:31:17.014Z,100113.32
2018-07-15T02:33:44.610Z,100112.13
2018-07-15T02:36:12.505Z,100118.66
2018-07-15T02:38:40.096Z,100112.36
2018-07-15T02:41:07.733Z,100103.75
2018-07-15T02:43:35.616Z,100115.48
2018-07-15T02:46:03.269Z,100106.05
2018-07-15T02:48:30.874Z,100111.55
2018-07-15T02:50:58.512Z,100107.66
2018-07-15T02:53:26.395Z,100110.86
2018-07-15T02:55:53.974Z,100114.67
2018-07-15T02:58:21.553Z,100112.64
2018-07-15T03:00:49.544Z,100114.26
2018-07-15T03:03:17.142Z,100111.87
2018-07-15T03:05:44.722Z,100107.30
2018-07-15T03:08:12.610Z,100111.45
2018-07-15T03:10:40.244Z,100104.71
2018-07-15T03:13:07.828Z,100109.86
2018-07-15T03:15:35.453Z,100103.94
2018-07-15T03:18:03.392Z,100104.38
2018-07-15T03:20:31.022Z,100114.67
2018-07-15T03:22:58.635Z,100111.60
2018-07-15T03:25:26.218Z,100111.66
2018-07-15T03:27:54.231Z,100111.09
2018-07-15T03:30:21.863Z,100112.09
2018-07-15T03:32:49.542Z,100104.34
2018-07-15T03:35:17.174Z,100110.70
2018-07-15T03:37:45.067Z,100107.29
2018-07-15T03:40:12.657Z,100108.58
2018-07-15T03:42:40.239Z,100107.16
2018-07-15T03:45:07.849Z,100108.45
2018-07-15T03:47:35.822Z,100110.27
2018-07-15T03:50:03.459Z,100097.86
2018-07-15T03:52:31.108Z,100097.16
2018-07-15T03:55:00.271Z,100094.97
2018-07-15T03:57:28.246Z,100095.13
2018-07-15T03:59:56.359Z,100101.27
2018-07-15T04:02:23.988Z,100090.68
2018-07-15T04:04:51.587Z,100089.82
2018-07-15T04:07:19.443Z,100093.02
2018-07-15T04:09:47.036Z,100093.49
2018-07-15T04:12:14.651Z,100088.13
2018-07-15T04:14:42.268Z,100091.25
2018-07-15T04:17:10.151Z,100089.00
2018-07-15T04:19:38.189Z,100083.12
2018-07-15T04:22:05.763Z,100087.23
2018-07-15T04:24:33.350Z,100077.55
2018-07-15T04:27:01.401Z,100086.71
2018-07-15T04:29:29.007Z,100078.94
2018-07-15T04:31:56.599Z,100074.64
2018-07-15T04:34:24.203Z,100073.00
2018-07-15T04:36:52.097Z,100074.47
2018-07-15T04:39:19.725Z,100077.34
2018-07-15T04:41:47.310Z,100071.75
2018-07-15T04:44:14.902Z,100076.71
2018-07-15T04:46:43.404Z,100074.00
2018-07-15T04:49:10.994Z,100070.77
2018-07-15T04:51:38.623Z,100068.84
2018-07-15T04:54:06.476Z,100070.29
2018-07-15T04:56:34.075Z,100068.80
2018-07-15T04:59:01.679Z,100068.44
2018-07-15T05:01:30.376Z,100073.11
2018-07-15T05:03:57.991Z,100063.80
2018-07-15T05:06:25.605Z,100070.80
2018-07-15T05:08:53.194Z,100071.44
2018-07-15T05:11:20.872Z,100073.59
2018-07-15T05:13:48.476Z,100079.31
2018-07-15T05:16:17.646Z,100075.95
2018-07-15T05:18:45.510Z,100074.88
2018-07-15T05:21:13.091Z,100081.72
2018-07-15T05:23:40.722Z,100084.69
2018-07-15T05:26:08.330Z,100087.97
2018-07-15T05:28:36.196Z,100085.88
2018-07-15T05:31:03.785Z,100090.81
2018-07-15T05:33:31.399Z,100087.03
2018-07-15T05:35:59.006Z,100085.56
2018-07-15T05:38:26.866Z,100085.27
2018-07-15T05:40:54.454Z,100086.30
2018-07-15T05:43:22.028Z,100080.78
2018-07-15T05:45:49.657Z,100077.95
2018-07-15T05:48:17.557Z,100081.66
2018-07-15T05:50:45.171Z,100086.23
2018-07-15T05:53:12.789Z,100083.56
2018-07-15T05:55:40.396Z,100088.12
2018-07-15T05:58:08.358Z,100084.08
2018-07-15T06:00:35.998Z,100080.86
2018-07-15T06:03:03.628Z,100084.21
2018-07-15T06:05:31.252Z,100086.73
2018-07-15T06:07:59.207Z,100088.23
2018-07-15T06:10:26.816Z,100084.52
2018-07-15T06:12:56.214Z,100087.03
2018-07-15T06:15:23.798Z,100086.88
2018-07-15T06:17:51.700Z,100083.98
2018-07-15T06:20:19.392Z,100080.06
2018-07-15T06:22:47.070Z,100080.00
2018-07-15T06:25:14.705Z,100078.93
2018-07-15T06:27:42.623Z,100075.32
2018-07-15T06:30:10.231Z,100079.29
2018-07-15T06:32:37.866Z,100075.34
2018-07-15T06:35:05.466Z,100082.08
2018-07-15T06:37:34.223Z,100080.00
2018-07-15T06:40:01.911Z,100080.61
2018-07-15T06:42:29.610Z,100074.64
2018-07-15T06:44:57.239Z,100072.52
2018-07-15T06:47:26.224Z,100074.66
2018-07-15T06:49:53.811Z,100072.38
2018-07-15T06:52:21.460Z,100072.83
2018-07-15T06:54:49.614Z,100071.08
2018-07-15T06:57:18.649Z,100071.50
2018-07-15T06:59:46.898Z,100073.42
2018-07-15T07:02:14.748Z,100076.52
2018-07-15T07:04:43.851Z,100075.39
2018-07-15T07:07:11.525Z,100074.98
2018-07-15T07:09:39.326Z,100076.39
2018-07-15T07:12:06.942Z,100079.78
2018-07-15T07:14:34.537Z,100078.86
2018-07-15T07:17:02.446Z,100080.11
2018-07-15T07:19:30.444Z,100075.97
2018-07-15T07:21:58.044Z,100071.93
2018-07-15T07:24:25.911Z,100070.78
2018-07-15T07:26:53.524Z,100074.73
2018-07-15T07:29:21.258Z,100071.27
2018-07-15T07:31:49.195Z,100070.87
2018-07-15T07:34:16.794Z,100069.84
2018-07-15T07:36:44.426Z,100068.66
2018-07-15T07:39:12.439Z,100074.59
2018-07-15T07:41:40.108Z,100066.98
2018-07-15T07:44:07.702Z,100059.64
2018-07-15T07:46:37.619Z,100060.25
2018-07-15T07:49:05.772Z,100064.53
2018-07-15T07:51:33.399Z,100064.16
2018-07-15T07:54:01.279Z,100058.47
2018-07-15T07:56:28.873Z,100066.69
2018-07-15T07:58:57.382Z,100067.57
2018-07-15T08:01:25.895Z,100066.68
2018-07-15T08:03:53.466Z,100067.87
2018-07-15T08:06:21.998Z,100065.65
2018-07-15T08:08:50.737Z,100064.19
2018-07-15T08:11:18.339Z,100065.79
2018-07-15T08:13:45.956Z,100069.38
2018-07-15T08:16:13.797Z,100058.01
2018-07-15T08:18:41.522Z,100065.25
2018-07-15T08:21:11.999Z,100062.53
2018-07-15T08:23:39.847Z,100065.53
2018-07-15T08:26:07.844Z,100061.88
2018-07-15T08:28:35.768Z,100061.03
2018-07-15T08:31:03.802Z,100063.14
2018-07-15T08:33:35.299Z,100063.06
2018-07-15T08:36:02.911Z,100059.21
2018-07-15T08:38:30.809Z,100061.94
2018-07-15T08:40:58.695Z,100061.00
2018-07-15T08:43:26.367Z,100055.79
2018-07-15T08:45:55.149Z,100061.44
2018-07-15T08:48:24.511Z,100058.31
2018-07-15T08:50:52.103Z,100062.31
2018-07-15T08:53:19.991Z,100062.31
2018-07-15T08:55:48.194Z,100058.48
2018-07-15T08:58:15.803Z,100058.58
2018-07-15T09:00:43.900Z,100066.55
2018-07-15T09:03:11.574Z,100059.30
2018-07-15T09:05:39.202Z,100062.24
2018-07-15T09:08:07.261Z,100057.32
2018-07-15T09:10:34.904Z,100062.25
2018-07-15T09:13:03.266Z,100055.21
2018-07-15T09:15:32.001Z,100055.30
2018-07-15T09:18:00.293Z,100046.58
2018-07-15T09:20:28.983Z,100050.98
2018-07-15T09:25:30.422Z,100049.83
2018-07-15T09:27:58.055Z,100050.23
2018-07-15T09:30:26.645Z,100056.27
2018-07-15T09:32:55.406Z,100053.52
2018-07-15T09:35:23.298Z,100051.39
2018-07-15T09:37:52.126Z,100044.81
2018-07-15T09:40:21.322Z,100048.80
2018-07-15T09:42:50.327Z,100056.48
2018-07-15T09:45:18.433Z,100057.17
2018-07-15T09:47:46.134Z,100054.02
2018-07-15T09:50:14.389Z,100057.77
2018-07-15T09:52:42.251Z,100045.19
2018-07-15T09:55:10.971Z,100051.74
2018-07-15T09:57:39.336Z,100052.24
2018-07-15T10:00:07.351Z,100042.88
2018-07-15T10:02:35.368Z,100044.75
2018-07-15T10:05:03.924Z,100044.47
2018-07-15T10:07:33.650Z,100042.73
2018-07-15T10:10:06.086Z,100042.14
2018-07-15T10:12:33.831Z,100033.70
2018-07-15T10:15:03.446Z,100036.30
2018-07-15T10:17:31.734Z,100037.04
2018-07-15T10:20:00.939Z,100035.45
2018-07-15T10:22:32.551Z,100028.26
2018-07-15T10:25:03.808Z,100038.39
2018-07-15T10:27:31.634Z,100030.41
2018-07-15T10:29:59.568Z,100028.82
2018-07-15T10:32:29.492Z,100032.83
2018-07-15T10:34:57.760Z,100017.84
2018-07-15T10:37:26.462Z,100031.80
2018-07-15T10:39:56.336Z,100019.82
2018-07-15T10:42:24.630Z,100015.03
2018-07-15T10:44:53.163Z,100013.39
2018-07-15T10:47:21.691Z,100021.65
2018-07-15T10:49:52.636Z,100018.55
2018-07-15T10:52:20.507Z,100005.23
2018-07-15T10:54:48.665Z,100007.06
2018-07-15T10:57:16.500Z,100009.14
2018-07-15T10:59:47.210Z,100009.81
2018-07-15T11:02:15.667Z,100009.31
2018-07-15T11:04:43.299Z,100009.14
2018-07-15T11:07:12.015Z,100008.63
2018-07-15T11:09:39.699Z,99999.28
2018-07-15T11:12:08.251Z,100000.70
2018-07-15T11:14:37.280Z,99995.73
2018-07-15T11:17:05.448Z,99991.86
2018-07-15T11:19:33.628Z,99985.55
2018-07-15T11:22:01.527Z,99979.72
2018-07-15T11:24:32.715Z,99986.04
2018-07-15T11:27:00.579Z,99980.48
2018-07-15T11:29:29.274Z,99981.78
2018-07-15T11:31:57.837Z,99979.52
2018-07-15T11:34:26.596Z,99985.03
2018-07-15T11:36:54.455Z,99987.49
2018-07-15T11:39:22.482Z,99978.57
2018-07-15T11:41:50.224Z,99978.81
2018-07-15T11:44:18.883Z,99973.44
2018-07-15T11:46:46.461Z,99972.48
2018-07-15T11:49:14.035Z,99969.56
2018-07-15T11:51:41.943Z,99970.03
2018-07-15T11:54:10.346Z,99967.97
2018-07-15T11:56:37.978Z,99966.44
2018-07-15T11:59:06.419Z,99966.00
2018-07-15T12:01:35.360Z,99961.11
2018-07-15T12:04:03.539Z,99958.20
2018-07-15T12:06:35.676Z,99955.05
2018-07-15T12:09:08.543Z,99956.25
2018-07-15T12:11:36.216Z,99945.50
2018-07-15T12:14:03.966Z,99946.77
2018-07-15T12:16:31.624Z,99940.70
2018-07-15T12:18:59.595Z,99936.22
2018-07-15T12:21:28.376Z,99938.90
2018-07-15T12:23:57.385Z,99937.36
2018-07-15T12:26:25.251Z,99943.41
2018-07-15T12:28:52.892Z,99938.61
2018-07-15T12:31:20.497Z,99930.18
2018-07-15T12:33:50.730Z,99922.26
2018-07-15T12:36:18.309Z,99917.25
2018-07-15T12:38:46.689Z,99914.77
2018-07-15T12:41:14.556Z,99918.48
2018-07-15T12:43:43.263Z,99916.21
2018-07-15T12:46:11.699Z,99907.13
2018-07-15T12:48:39.614Z,99904.51
2018-07-15T12:51:08.168Z,99904.34
2018-07-15T12:53:37.365Z,99897.53
2018-07-15T12:56:05.259Z,99899.14
2018-07-15T12:58:33.670Z,99896.77
2018-07-15T13:01:02.167Z,99896.86
2018-07-15T13:03:31.481Z,99902.91
2018-07-15T13:05:59.303Z,99892.89
2018-07-15T13:08:26.933Z,99889.17
2018-07-15T13:10:55.406Z,99885.25
2018-07-15T13:13:25.184Z,99881.02
2018-07-15T13:15:52.794Z,99879.77
2018-07-15T13:18:21.276Z,99872.28
2018-07-15T13:20:50.359Z,99867.83
2018-07-15T13:23:20.868Z,99859.66
2018-07-15T13:25:50.374Z,99857.05
2018-07-15T13:28:19.480Z,99857.75
2018-07-15T13:31:01.243Z,99860.17
2018-07-15T13:33:29.130Z,99858.28
2018-07-15T13:35:57.296Z,99851.05
2018-07-15T13:38:26.290Z,99847.11
2018-07-15T13:40:55.349Z,99848.36
2018-07-15T13:43:22.995Z,99850.71
2018-07-15T13:45:55.300Z,99843.05
2018-07-15T13:48:23.215Z,99842.52
2018-07-15T13:50:50.827Z,99837.77
2018-07-15T13:53:19.276Z,99836.80
2018-07-15T13:55:48.372Z,99835.78
2018-07-15T13:58:15.948Z,99830.23
2018-07-15T14:00:43.568Z,99840.03
2018-07-15T14:03:11.439Z,99834.69
2018-07-15T14:05:39.307Z,99831.78
2018-07-15T14:08:11.431Z,99828.80
2018-07-15T14:10:39.338Z,99831.36
2018-07-15T14:13:10.252Z,99829.11
2018-07-15T14:15:37.855Z,99821.77
2018-07-15T14:18:05.972Z,99823.63
2018-07-15T14:20:35.350Z,99824.48
2018-07-15T14:23:03.256Z,99824.70
2018-07-15T14:25:31.360Z,99815.61
2018-07-15T14:28:00.128Z,99816.00
2018-07-15T14:30:27.691Z,99807.78
2018-07-15T14:32:56.496Z,99811.84
2018-07-15T14:35:25.639Z,99807.81
2018-07-15T14:37:53.217Z,99802.78
2018-07-15T14:40:21.189Z,99805.61
2018-07-15T14:42:48.814Z,99802.16
2018-07-15T14:45:17.201Z,99788.91
2018-07-15T14:47:47.673Z,99798.45
2018-07-15T14:50:15.280Z,99802.30
2018-07-15T14:52:43.596Z,99803.83
2018-07-15T14:55:11.467Z,99805.03
2018-07-15T14:57:40.040Z,99801.27
2018-07-15T15:00:07.676Z,99796.06
2018-07-15T15:02:36.479Z,99793.23
2018-07-15T15:05:04.090Z,99793.97
2018-07-15T15:07:31.715Z,99795.52
2018-07-15T15:10:00.627Z,99797.32
2018-07-15T15:15:03.590Z,99791.86
2018-07-15T15:17:32.360Z,99784.09
2018-07-15T15:20:00.842Z,99781.24
2018-07-15T15:22:28.491Z,99783.52
2018-07-15T15:24:56.338Z,99779.91
2018-07-15T15:27:25.614Z,99783.30
2018-07-15T15:29:53.223Z,99777.87
2018-07-15T15:32:23.746Z,99777.97
2018-07-15T15:34:51.630Z,99778.36
2018-07-15T15:37:21.210Z,99781.47
2018-07-15T15:39:49.786Z,99773.19
2018-07-15T15:42:19.519Z,99770.47
2018-07-15T15:44:48.622Z,99775.97
2018-07-15T15:47:17.198Z,99774.36
2018-07-15T15:49:45.377Z,99778.08
2018-07-15T15:52:13.546Z,99772.75
2018-07-15T15:54:43.503Z,99771.19
2018-07-15T15:57:11.294Z,99771.55
2018-07-15T15:59:39.144Z,99771.17
2018-07-15T16:02:08.371Z,99764.14
2018-07-15T16:04:39.238Z,99765.60
2018-07-15T16:07:07.808Z,99747.77
2018-07-15T16:09:38.498Z,99752.70
2018-07-15T16:12:06.061Z,99755.98
2018-07-15T16:14:34.245Z,99755.80
2018-07-15T16:17:02.867Z,99753.06
2018-07-15T16:19:31.959Z,99757.22
2018-07-15T16:22:00.516Z,99750.36
2018-07-15T16:24:28.424Z,99754.31
2018-07-15T16:26:56.226Z,99750.83
2018-07-15T16:29:24.420Z,99751.95
2018-07-15T16:31:53.316Z,99755.05
2018-07-15T16:34:21.483Z,99757.22
2018-07-15T16:36:49.813Z,99754.83
2018-07-15T16:39:19.299Z,99753.92
2018-07-15T16:41:48.303Z,99757.31
2018-07-15T16:44:17.899Z,99760.39
2018-07-15T16:46:47.483Z,99754.56
2018-07-15T16:49:15.729Z,99762.50
2018-07-15T16:51:44.510Z,99759.98
2018-07-15T16:54:12.368Z,99763.23
2018-07-15T16:56:42.442Z,99764.31
2018-07-15T16:59:11.178Z,99766.02
2018-07-15T17:01:40.423Z,99764.55
2018-07-15T17:04:09.451Z,99771.38
2018-07-15T17:06:37.870Z,99761.59
2018-07-15T17:09:08.624Z,99751.61
2018-07-15T17:11:36.551Z,99762.34
2018-07-15T17:14:04.169Z,99760.13
2018-07-15T17:16:32.899Z,99761.44
2018-07-15T17:19:01.449Z,99764.45
2018-07-15T17:21:31.526Z,99758.50
2018-07-15T17:23:59.377Z,99753.73
2018-07-15T17:26:27.117Z,99752.08
2018-07-15T17:28:54.698Z,99753.69
2018-07-15T17:31:23.162Z,99754.49
2018-07-15T17:33:50.995Z,99742.45
2018-07-15T17:36:19.804Z,99744.42
2018-07-15T17:38:47.663Z,99741.47
2018-07-15T17:41:16.298Z,99733.53
2018-07-15T17:43:46.439Z,99732.17
2018-07-15T17:46:15.934Z,99728.17
2018-07-15T17:48:43.470Z,99737.00
2018-07-15T17:51:11.297Z,99734.05
2018-07-15T17:53:40.470Z,99741.28
2018-07-15T17:56:08.070Z,99742.13
2018-07-15T17:58:36.506Z,99742.22
2018-07-15T18:01:05.807Z,99738.22
2018-07-15T18:03:34.527Z,99743.01
2018-07-15T18:06:02.163Z,99737.83
2018-07-15T18:08:30.057Z,99736.52
2018-07-15T18:10:57.759Z,99738.48
2018-07-15T18:13:25.338Z,99735.00
2018-07-15T18:15:53.846Z,99741.91
2018-07-15T18:18:21.415Z,99738.11
2018-07-15T18:20:51.788Z,99741.75
2018-07-15T18:23:20.425Z,99736.06
2018-07-15T18:25:48.057Z,99740.45
2018-07-15T18:28:16.254Z,99740.77
2018-07-15T18:30:44.491Z,99735.38
2018-07-15T18:33:13.112Z,99742.58
2018-07-15T18:35:45.979Z,99743.98
2018-07-15T18:38:16.514Z,99740.81
2018-07-15T18:40:45.339Z,99746.60
2018-07-15T18:43:14.415Z,99752.42
2018-07-15T18:45:42.758Z,99749.77
2018-07-15T18:48:13.773Z,99748.77
2018-07-15T18:50:41.428Z,99759.48
2018-07-15T18:53:08.999Z,99760.67
2018-07-15T18:55:36.878Z,99758.00
2018-07-15T18:58:06.228Z,99760.72
2018-07-15T19:00:35.426Z,99759.95
2018-07-15T19:03:06.595Z,99758.82
2018-07-15T19:05:35.279Z,99759.41
2018-07-15T19:08:03.765Z,99758.31
2018-07-15T19:10:31.623Z,99758.77
2018-07-15T19:13:01.067Z,99761.95
2018-07-15T19:15:29.274Z,99759.17
2018-07-15T19:17:59.359Z,99760.73
2018-07-15T19:20:28.143Z,99759.21
2018-07-15T19:22:56.768Z,99764.48
2018-07-15T19:25:25.296Z,99766.39
2018-07-15T19:27:52.914Z,99771.75
2018-07-15T19:30:20.499Z,99772.80
2018-07-15T19:32:48.496Z,99773.88
2018-07-15T19:35:17.459Z,99778.69
2018-07-15T19:40:19.271Z,99788.50
2018-07-15T19:42:47.705Z,99788.39
2018-07-15T19:45:17.909Z,99789.42
2018-07-15T19:47:46.885Z,99787.76
2018-07-15T19:50:14.479Z,99791.50
2018-07-15T19:52:43.691Z,99790.56
2018-07-15T19:55:12.575Z,99797.33
2018-07-15T19:57:41.404Z,99798.85
2018-07-15T20:00:09.199Z,99803.63
2018-07-15T20:02:38.507Z,99805.52
2018-07-15T20:05:07.417Z,99805.67
2018-07-15T20:07:35.043Z,99811.09
2018-07-15T20:10:03.579Z,99810.77
2018-07-15T20:12:33.094Z,99815.02
2018-07-15T20:15:01.021Z,99817.99
2018-07-15T20:17:30.049Z,99816.20
2018-07-15T20:19:58.299Z,99817.22
2018-07-15T20:22:26.492Z,99823.55
2018-07-15T20:24:54.587Z,99822.20
2018-07-15T20:27:22.199Z,99823.17
2018-07-15T20:29:51.132Z,99823.87
2018-07-15T20:32:20.499Z,99826.08
2018-07-15T20:34:50.880Z,99825.41
2018-07-15T20:37:18.697Z,99826.56
2018-07-15T20:39:46.596Z,99829.95
2018-07-15T20:42:14.229Z,99828.88
2018-07-15T20:44:42.454Z,99829.97
2018-07-15T20:47:10.941Z,99826.45
2018-07-15T20:49:38.518Z,99833.15
2018-07-15T20:52:08.660Z,99833.82
2018-07-15T20:54:38.677Z,99834.98
2018-07-15T20:57:06.588Z,99833.09
2018-07-15T20:59:34.447Z,99838.72
2018-07-15T21:02:02.583Z,99844.94
2018-07-15T21:04:30.159Z,99845.12
2018-07-15T21:07:01.305Z,99845.23
2018-07-15T21:09:30.740Z,99842.47
2018-07-15T21:11:59.684Z,99839.02
2018-07-15T21:14:28.578Z,99851.30
2018-07-15T21:16:57.274Z,99847.34
2018-07-15T21:19:24.871Z,99846.94
2018-07-15T21:21:55.911Z,99846.00
2018-07-15T21:24:25.191Z,99848.28
2018-07-15T21:26:52.867Z,99843.92
2018-07-15T21:29:22.346Z,99841.98
2018-07-15T21:31:50.190Z,99841.05
2018-07-15T21:34:18.031Z,99843.95
2018-07-15T21:36:45.635Z,99839.60
2018-07-15T21:39:13.513Z,99834.75
2018-07-15T21:41:42.445Z,99838.83
2018-07-15T21:44:11.725Z,99834.63
2018-07-15T21:46:40.461Z,99831.33
2018-07-15T21:49:09.327Z,99840.66
2018-07-15T21:51:37.175Z,99834.16
2018-07-15T21:54:05.703Z,99830.23
2018-07-15T21:56:33.308Z,99831.66
2018-07-15T21:59:03.044Z,99834.13
2018-07-15T22:01:31.259Z,99834.39
2018-07-15T22:03:59.583Z,99833.13
2018-07-15T22:06:27.451Z,99843.16
2018-07-15T22:08:55.040Z,99843.25
2018-07-15T22:11:22.615Z,99847.20
2018-07-15T22:13:51.077Z,99850.14
2018-07-15T22:16:18.654Z,99850.66
2018-07-15T22:18:46.218Z,99845.27
2018-07-15T22:21:15.376Z,99846.94
2018-07-15T22:23:43.688Z,99846.61
2018-07-15T22:26:11.326Z,99846.28
2018-07-15T22:28:39.198Z,99847.30
2018-07-15T22:31:06.771Z,99850.65
2018-07-15T22:33:35.580Z,99845.97
2018-07-15T22:36:03.636Z,99848.00
2018-07-15T22:38:31.455Z,99842.96
2018-07-15T22:40:59.868Z,99845.84
2018-07-15T22:43:27.741Z,99846.69
2018-07-15T22:45:55.499Z,99841.81
2018-07-15T22:48:23.095Z,99847.53
2018-07-15T22:50:51.002Z,99841.30
2018-07-15T22:53:19.236Z,99842.50
2018-07-15T22:55:46.837Z,99844.34
2018-07-15T22:58:14.693Z,99840.31
2018-07-15T23:00:42.251Z,99838.97
2018-07-15T23:03:09.807Z,99840.16
2018-07-15T23:05:39.267Z,99841.31
2018-07-15T23:08:07.239Z,99840.59
2018-07-15T23:10:34.803Z,99839.58
2018-07-15T23:13:03.428Z,99841.27
2018-07-15T23:15:31.479Z,99845.32
2018-07-15T23:17:59.378Z,99849.67
2018-07-15T23:20:27.437Z,99854.03
2018-07-15T23:22:55.339Z,99845.94
2018-07-15T23:25:23.976Z,99850.12
2018-07-15T23:27:51.567Z,99843.70
2018-07-15T23:30:19.140Z,99840.69
2018-07-15T23:32:47.183Z,99844.55
2018-07-15T23:35:14.782Z,99840.51
2018-07-15T23:37:42.379Z,99842.19
2018-07-15T23:40:09.963Z,99833.63
2018-07-15T23:42:38.742Z,99841.17
2018-07-15T23:45:06.958Z,99847.41
2018-07-15T23:47:34.598Z,99848.42
2018-07-15T23:50:02.288Z,99838.98
2018-07-15T23:52:30.408Z,99843.84
2018-07-15T23:54:58.039Z,99842.63
2018-07-15T23:57:25.672Z,99848.31
2018-07-15T23:59:53.271Z,99846.81
